Time;durP1;ratioP1;P1;durP2;ratioP2;P2;SDS_P1;SDS_P2;PMS_P1;PMS_P2;Temp;Humidity;BMP_temperature;BMP_pressure;BME280_temperature;BME280_humidity;BME280_pressure;Samples;Min_cycle;Max_cycle;Signal;HPM_P1;HPM_P2
2021/04/26 00:02:14;;;;;;;15.43;4.15;;;20.90;68.10;;;;;;4973997;28;20126;-64
2021/04/26 00:04:41;;;;;;;7.35;3.38;;;20.90;67.60;;;;;;4974525;28;20034;-64
2021/04/26 00:07:09;;;;;;;8.20;2.72;;;21.00;67.80;;;;;;4973896;28;20482;-65
2021/04/26 00:09:36;;;;;;;2.58;1.77;;;21.00;67.60;;;;;;4974565;28;20094;-65
2021/04/26 00:12:04;;;;;;;7.25;2.20;;;21.10;67.50;;;;;;4974755;28;20031;-64
2021/04/26 00:14:31;;;;;;;5.30;2.70;;;21.10;67.30;;;;;;4974328;28;20478;-66
2021/04/26 00:16:58;;;;;;;4.80;2.42;;;21.20;66.70;;;;;;4974461;28;20050;-66
2021/04/26 00:19:26;;;;;;;2.58;2.00;;;21.30;66.80;;;;;;4974731;28;20015;-63
2021/04/26 00:21:53;;;;;;;3.83;1.95;;;21.40;66.50;;;;;;4974246;28;20165;-64
2021/04/26 00:24:21;;;;;;;5.63;2.25;;;21.40;66.20;;;;;;4974497;28;20030;-64
2021/04/26 00:26:48;;;;;;;5.45;1.92;;;21.50;66.20;;;;;;4974530;28;20081;-64
2021/04/26 00:29:16;;;;;;;5.50;2.55;;;21.70;65.70;;;;;;4974046;28;20109;-66
2021/04/26 00:31:43;;;;;;;6.72;2.78;;;21.70;65.70;;;;;;4974642;28;20545;-63
2021/04/26 00:34:10;;;;;;;3.58;2.30;;;21.80;65.10;;;;;;4974329;28;20070;-67
2021/04/26 00:36:38;;;;;;;5.07;2.38;;;21.80;65.00;;;;;;4974766;28;20037;-64
2021/04/26 00:39:06;;;;;;;11.05;3.13;;;21.70;65.30;;;;;;4972923;28;20057;-64
2021/04/26 00:41:33;;;;;;;4.90;2.38;;;22.00;65.00;;;;;;4957017;28;20045;-65
2021/04/26 00:44:00;;;;;;;6.60;2.20;;;21.90;64.70;;;;;;4974151;28;20027;-66
2021/04/26 00:46:28;;;;;;;5.25;2.33;;;22.10;64.10;;;;;;4974315;28;20110;-64
2021/04/26 00:48:55;;;;;;;8.57;3.50;;;22.10;64.10;;;;;;4974018;28;20053;-65
2021/04/26 00:51:23;;;;;;;7.13;2.20;;;22.20;63.80;;;;;;4973994;28;20046;-65
2021/04/26 00:53:51;;;;;;;4.85;2.40;;;22.30;63.60;;;;;;4973951;28;20053;-65
2021/04/26 00:56:18;;;;;;;4.50;2.35;;;22.30;63.80;;;;;;4974821;28;20033;-64
2021/04/26 00:58:45;;;;;;;7.60;2.85;;;22.40;63.30;;;;;;4976411;28;20470;-65
2021/04/26 01:01:13;;;;;;;3.35;2.22;;;22.40;62.90;;;;;;4973937;28;20018;-65
2021/04/26 01:03:40;;;;;;;5.88;2.67;;;22.50;63.30;;;;;;4973488;28;20129;-64
2021/04/26 01:06:08;;;;;;;3.47;2.13;;;22.50;62.80;;;;;;4973771;28;20150;-66
2021/04/26 01:08:35;;;;;;;5.00;2.40;;;22.50;62.90;;;;;;4973310;28;20027;-65
2021/04/26 01:11:03;;;;;;;2.90;2.00;;;22.50;62.80;;;;;;4973069;28;20424;-64
2021/04/26 01:14:01;;;;;;;3.42;1.95;;;22.60;63.00;;;;;;4972829;28;20058;-65
2021/04/26 01:16:44;;;;;;;3.90;2.10;;;22.50;63.10;;;;;;4972787;28;20076;-66
2021/04/26 01:19:38;;;;;;;5.50;2.40;;;22.50;63.10;;;;;;4972799;28;20501;-64
2021/04/26 01:22:45;;;;;;;3.92;1.85;;;22.80;62.80;;;;;;4972854;28;20027;-65
2021/04/26 01:25:21;;;;;;;4.82;2.05;;;22.60;63.20;;;;;;4973326;28;20102;-64
2021/04/26 01:27:48;;;;;;;3.58;1.90;;;22.80;62.90;;;;;;4973160;28;20023;-65
2021/04/26 01:30:24;;;;;;;3.17;1.83;;;22.80;62.40;;;;;;4973074;28;20033;-64
2021/04/26 01:33:14;;;;;;;2.88;2.40;;;22.90;62.50;;;;;;4971980;28;20033;-67
2021/04/26 01:35:41;;;;;;;4.18;2.33;;;22.80;63.00;;;;;;4973027;28;20211;-65
2021/04/26 01:38:14;;;;;;;7.47;2.42;;;23.00;62.30;;;;;;4972822;28;20034;-66
2021/04/26 01:40:44;;;;;;;6.85;3.10;;;23.00;62.20;;;;;;4972575;28;20019;-65
2021/04/26 01:43:13;;;;;;;3.97;2.40;;;23.10;61.60;;;;;;4972845;28;20035;-65
2021/04/26 01:45:42;;;;;;;4.60;1.95;;;23.20;61.10;;;;;;4972951;28;20385;-66
2021/04/26 01:48:09;;;;;;;4.88;2.35;;;23.10;62.00;;;;;;4972621;28;20054;-70
2021/04/26 01:50:37;;;;;;;4.30;2.30;;;23.20;61.70;;;;;;4972584;28;20466;-63
2021/04/26 01:53:05;;;;;;;3.15;2.20;;;23.40;61.50;;;;;;4964648;28;20026;-64
2021/04/26 01:55:33;;;;;;;3.03;2.17;;;23.40;61.20;;;;;;4971350;28;20474;-61
2021/04/26 01:58:02;;;;;;;7.40;2.60;;;23.50;61.10;;;;;;4953803;28;20111;-59
2021/04/26 02:00:32;;;;;;;7.82;2.78;;;23.70;60.10;;;;;;4969260;28;20465;-65
2021/04/26 02:03:01;;;;;;;6.78;2.78;;;23.90;59.40;;;;;;4970336;28;20130;-65
2021/04/26 02:05:31;;;;;;;5.57;2.67;;;23.90;59.30;;;;;;4971238;28;20154;-66
2021/04/26 02:08:00;;;;;;;4.68;2.80;;;24.00;58.40;;;;;;4970338;28;20031;-65
2021/04/26 02:10:29;;;;;;;6.03;2.70;;;24.10;58.50;;;;;;4964859;28;20489;-63
2021/04/26 02:12:59;;;;;;;7.95;2.17;;;24.10;58.70;;;;;;4970120;28;20031;-60
2021/04/26 02:15:29;;;;;;;3.92;2.60;;;24.10;59.60;;;;;;4971017;28;20030;-61
2021/04/26 02:17:57;;;;;;;23.20;3.13;;;24.00;59.30;;;;;;4970664;28;20064;-61
2021/04/26 02:20:25;;;;;;;12.50;3.03;;;24.10;59.10;;;;;;4967630;28;20027;-61
2021/04/26 02:22:53;;;;;;;6.00;2.65;;;24.20;58.50;;;;;;4970383;28;20427;-60
2021/04/26 02:25:21;;;;;;;5.88;2.80;;;24.20;59.50;;;;;;4971383;28;20034;-63
2021/04/26 02:27:49;;;;;;;5.53;2.10;;;24.40;58.00;;;;;;4971325;28;20027;-62
2021/04/26 02:30:17;;;;;;;4.60;2.40;;;24.20;59.40;;;;;;4967218;28;20675;-63
2021/04/26 02:32:55;;;;;;;7.10;2.53;;;24.30;58.50;;;;;;4969610;28;20031;-65
2021/04/26 02:35:33;;;;;;;2.85;2.03;;;24.10;59.10;;;;;;4968974;28;20034;-61
2021/04/26 02:38:18;;;;;;;5.50;2.60;;;24.30;59.70;;;;;;4970494;28;20038;-61
2021/04/26 02:40:53;;;;;;;8.13;2.67;;;24.40;58.70;;;;;;4965323;28;20035;-69
2021/04/26 02:43:21;;;;;;;6.80;2.25;;;24.40;58.60;;;;;;4970293;28;20045;-68
2021/04/26 02:45:53;;;;;;;3.25;2.25;;;24.60;58.70;;;;;;4975095;28;20031;-68
2021/04/26 02:48:22;;;;;;;3.50;2.45;;;24.50;58.90;;;;;;4971558;28;20038;-69
2021/04/26 02:51:00;;;;;;;3.65;2.25;;;24.60;58.30;;;;;;4968532;28;20043;-69
2021/04/26 02:53:30;;;;;;;5.05;2.50;;;24.50;58.00;;;;;;4973632;28;20058;-64
2021/04/26 02:56:13;;;;;;;4.55;2.47;;;24.50;58.80;;;;;;4974468;28;20466;-66
2021/04/26 02:58:44;;;;;;;4.47;2.42;;;24.70;58.90;;;;;;4957020;28;20027;-64
2021/04/26 03:01:13;;;;;;;5.40;2.20;;;24.50;59.00;;;;;;4968303;28;20533;-61
2021/04/26 03:03:46;;;;;;;5.85;2.88;;;24.50;59.10;;;;;;4972877;28;20039;-61
2021/04/26 03:06:15;;;;;;;5.18;2.90;;;24.50;58.40;;;;;;4973656;28;20055;-66
2021/04/26 03:08:45;;;;;;;4.70;2.55;;;24.50;59.00;;;;;;4972397;28;20515;-64
2021/04/26 03:11:15;;;;;;;7.50;2.70;;;24.60;59.10;;;;;;4968083;28;20027;-67
2021/04/26 03:13:44;;;;;;;5.63;2.70;;;24.60;59.00;;;;;;4972906;28;20386;-67
2021/04/26 03:16:12;;;;;;;3.70;2.40;;;24.70;57.50;;;;;;4973064;28;20462;-61
2021/04/26 03:18:40;;;;;;;5.47;2.90;;;24.70;58.90;;;;;;4973415;28;20043;-66
2021/04/26 03:21:10;;;;;;;5.53;2.72;;;24.80;57.60;;;;;;4967595;28;20117;-63
2021/04/26 03:23:38;;;;;;;4.53;2.60;;;24.70;58.60;;;;;;4974622;28;20517;-68
2021/04/26 03:26:09;;;;;;;6.13;2.30;;;24.60;58.90;;;;;;4975291;28;20037;-64
2021/04/26 03:28:42;;;;;;;5.32;2.80;;;24.80;57.50;;;;;;4973324;28;20031;-63
2021/04/26 03:31:10;;;;;;;7.15;3.28;;;24.80;58.60;;;;;;4967610;28;20023;-62
2021/04/26 03:33:39;;;;;;;5.00;2.75;;;25.10;56.60;;;;;;4972718;28;20493;-60
2021/04/26 03:36:08;;;;;;;8.93;3.28;;;25.30;57.10;;;;;;4972926;28;20023;-61
2021/04/26 03:38:38;;;;;;;6.65;2.67;;;25.40;56.30;;;;;;4973294;28;20031;-62
2021/04/26 03:41:07;;;;;;;3.35;2.17;;;25.40;57.10;;;;;;4967699;28;20015;-63
2021/04/26 03:43:34;;;;;;;3.85;2.35;;;25.30;57.30;;;;;;4969889;28;20031;-64
2021/04/26 03:46:02;;;;;;;4.55;2.33;;;25.30;57.10;;;;;;4969435;28;20019;-68
2021/04/26 03:48:29;;;;;;;7.15;2.92;;;25.20;56.80;;;;;;4972545;28;20031;-66
2021/04/26 03:50:57;;;;;;;10.27;2.97;;;25.40;57.20;;;;;;4966978;28;20189;-66
2021/04/26 03:53:24;;;;;;;4.65;2.65;;;25.40;56.30;;;;;;4972263;28;20054;-63
2021/04/26 03:55:52;;;;;;;4.68;2.80;;;25.30;57.20;;;;;;4973102;28;20045;-64
2021/04/26 03:58:19;;;;;;;3.97;2.40;;;25.30;56.70;;;;;;4974571;28;20053;-62
2021/04/26 04:00:46;;;;;;;4.00;2.33;;;25.40;57.20;;;;;;4974153;28;20038;-65
2021/04/26 04:03:14;;;;;;;5.82;2.78;;;25.40;57.30;;;;;;4973782;28;20110;-64
2021/04/26 04:05:42;;;;;;;6.13;2.58;;;25.40;57.60;;;;;;4973948;28;20023;-65
2021/04/26 04:08:10;;;;;;;3.20;2.20;;;25.40;56.30;;;;;;4974359;28;20030;-66
2021/04/26 04:10:37;;;;;;;3.05;2.03;;;25.30;57.00;;;;;;4974304;28;20073;-65
2021/04/26 04:13:05;;;;;;;5.38;2.58;;;25.20;57.20;;;;;;4973677;28;20406;-65
2021/04/26 04:15:32;;;;;;;4.47;2.38;;;24.90;57.50;;;;;;4974271;28;20042;-64
2021/04/26 04:17:59;;;;;;;5.05;2.47;;;24.80;57.80;;;;;;4974107;28;20023;-65
2021/04/26 04:20:27;;;;;;;7.78;3.25;;;24.70;57.60;;;;;;4974188;28;20023;-66
2021/04/26 04:22:54;;;;;;;4.03;2.30;;;24.50;59.70;;;;;;4971836;28;20093;-64
2021/04/26 04:25:22;;;;;;;7.93;3.25;;;24.50;59.40;;;;;;4974213;28;20031;-64
2021/04/26 04:27:49;;;;;;;7.60;2.80;;;24.40;58.90;;;;;;4974332;28;20038;-65
2021/04/26 04:30:17;;;;;;;6.05;2.83;;;24.50;60.00;;;;;;4974406;28;20470;-64
2021/04/26 04:32:44;;;;;;;7.75;2.50;;;24.50;60.40;;;;;;4974342;28;20035;-64
2021/04/26 04:35:12;;;;;;;7.47;2.50;;;24.60;60.20;;;;;;4974116;28;20022;-65
2021/04/26 04:37:39;;;;;;;4.82;2.45;;;24.50;58.30;;;;;;4973571;28;20074;-63
2021/04/26 04:40:08;;;;;;;7.20;3.20;;;24.60;59.00;;;;;;4973405;28;20113;-64
2021/04/26 04:42:35;;;;;;;13.10;3.38;;;24.50;57.60;;;;;;4972895;28;20061;-66
2021/04/26 04:45:03;;;;;;;8.27;3.05;;;24.40;58.40;;;;;;4973034;28;20336;-63
2021/04/26 04:47:30;;;;;;;6.75;2.90;;;24.40;60.30;;;;;;4973747;28;20106;-67
2021/04/26 04:49:58;;;;;;;4.22;2.80;;;24.30;59.50;;;;;;4974132;28;20529;-64
2021/04/26 04:52:25;;;;;;;6.63;3.15;;;24.30;58.70;;;;;;4974276;28;20070;-66
2021/04/26 04:54:52;;;;;;;6.32;2.95;;;24.40;59.90;;;;;;4973818;28;20358;-63
2021/04/26 04:57:20;;;;;;;11.25;2.90;;;24.40;59.80;;;;;;4973700;28;20027;-67
2021/04/26 04:59:47;;;;;;;5.55;2.92;;;24.30;60.00;;;;;;4974173;28;20097;-64
2021/04/26 05:02:15;;;;;;;6.95;3.03;;;24.30;59.20;;;;;;4973916;28;20121;-64
2021/04/26 05:04:42;;;;;;;3.38;2.35;;;24.40;59.70;;;;;;4973835;28;20104;-66
2021/04/26 05:07:09;;;;;;;3.80;2.35;;;24.50;60.70;;;;;;4972557;28;20038;-65
2021/04/26 05:09:37;;;;;;;3.15;2.22;;;24.50;60.60;;;;;;4973855;28;20030;-65
2021/04/26 05:12:04;;;;;;;4.72;2.50;;;24.60;60.60;;;;;;4973817;28;20493;-64
2021/04/26 05:14:32;;;;;;;7.88;2.47;;;24.60;60.00;;;;;;4973214;28;20035;-65
2021/04/26 05:17:00;;;;;;;4.30;2.33;;;24.80;59.40;;;;;;4956063;28;20037;-65
2021/04/26 05:19:28;;;;;;;9.27;3.38;;;24.80;59.80;;;;;;4972791;28;20073;-64
2021/04/26 05:21:55;;;;;;;7.50;3.00;;;24.90;57.80;;;;;;4973416;28;20034;-65
2021/04/26 05:24:23;;;;;;;9.18;2.88;;;24.90;57.90;;;;;;4973946;28;20221;-64
2021/04/26 05:26:50;;;;;;;7.10;2.63;;;24.90;58.30;;;;;;4973775;28;20029;-65
2021/04/26 05:29:18;;;;;;;10.05;3.05;;;24.90;58.80;;;;;;4955760;28;20038;-64
2021/04/26 05:31:45;;;;;;;4.25;2.08;;;24.90;58.10;;;;;;4973768;28;20140;-64
2021/04/26 05:34:12;;;;;;;4.93;2.60;;;24.80;58.90;;;;;;4973427;28;20516;-63
2021/04/26 05:36:40;;;;;;;7.18;2.50;;;24.90;59.00;;;;;;4973002;28;20031;-62
2021/04/26 05:39:07;;;;;;;4.35;2.55;;;24.90;58.30;;;;;;4972099;28;20054;-68
2021/04/26 05:41:35;;;;;;;5.30;2.20;;;24.80;58.40;;;;;;4972435;28;20034;-64
2021/04/26 05:44:02;;;;;;;6.00;2.53;;;24.80;58.90;;;;;;4973182;28;20118;-63
2021/04/26 05:46:30;;;;;;;3.72;2.33;;;24.80;59.70;;;;;;4955479;28;20377;-65
2021/04/26 05:48:57;;;;;;;10.80;3.70;;;24.70;60.50;;;;;;4972840;28;20049;-65
2021/04/26 05:51:25;;;;;;;4.03;2.22;;;24.70;59.20;;;;;;4972691;28;20039;-66
2021/04/26 05:53:52;;;;;;;9.20;3.45;;;24.70;60.30;;;;;;4973101;28;20088;-64
2021/04/26 05:56:19;;;;;;;14.68;3.70;;;24.60;59.10;;;;;;4974083;28;20030;-64
2021/04/26 05:58:48;;;;;;;8.68;3.38;;;24.60;59.50;;;;;;4965028;28;20039;-64
2021/04/26 06:01:15;;;;;;;2.90;2.22;;;24.60;60.00;;;;;;4971114;28;20480;-66
2021/04/26 06:03:43;;;;;;;6.93;2.65;;;24.50;61.40;;;;;;4967846;28;20031;-65
2021/04/26 06:06:10;;;;;;;5.05;2.55;;;24.50;60.60;;;;;;4971189;28;20030;-64
2021/04/26 06:08:37;;;;;;;4.00;2.40;;;24.50;60.90;;;;;;4970371;28;20051;-65
2021/04/26 06:11:05;;;;;;;4.95;3.08;;;24.40;60.20;;;;;;4971483;28;20035;-64
2021/04/26 06:13:33;;;;;;;3.47;1.83;;;24.30;61.20;;;;;;4949318;28;20034;-66
2021/04/26 06:16:00;;;;;;;4.45;2.63;;;24.20;61.70;;;;;;4970426;28;20039;-64
2021/04/26 06:18:28;;;;;;;6.40;2.25;;;24.30;61.00;;;;;;4970672;28;20039;-65
2021/04/26 06:20:55;;;;;;;5.80;2.88;;;24.30;61.60;;;;;;4974437;28;20069;-63
2021/04/26 06:23:23;;;;;;;7.07;2.80;;;24.30;61.20;;;;;;4970662;28;20097;-67
2021/04/26 06:25:50;;;;;;;5.18;2.40;;;24.20;61.70;;;;;;4975219;28;20027;-65
2021/04/26 06:28:18;;;;;;;7.28;3.17;;;24.10;61.90;;;;;;4974603;28;20082;-65
2021/04/26 06:30:46;;;;;;;5.50;2.88;;;24.10;61.50;;;;;;4974626;28;20027;-67
2021/04/26 06:33:17;;;;;;;8.80;2.92;;;24.00;61.60;;;;;;4970895;28;20147;-66
2021/04/26 06:35:47;;;;;;;7.73;3.03;;;23.90;61.30;;;;;;4974686;28;20042;-65
2021/04/26 06:38:14;;;;;;;9.65;2.80;;;23.80;61.90;;;;;;4956402;28;20263;-64
2021/04/26 06:40:42;;;;;;;11.57;3.08;;;23.60;62.30;;;;;;4975099;28;20022;-67
2021/04/26 06:43:10;;;;;;;3.80;2.20;;;23.50;62.90;;;;;;4970125;28;20493;-61
2021/04/26 06:45:39;;;;;;;5.43;2.22;;;23.30;63.80;;;;;;4974265;28;20066;-64
2021/04/26 06:48:08;;;;;;;6.85;3.63;;;23.20;64.40;;;;;;4973755;28;20386;-67
2021/04/26 06:50:36;;;;;;;9.18;3.78;;;23.10;64.20;;;;;;4973852;28;20063;-63
2021/04/26 06:53:04;;;;;;;5.22;3.35;;;23.00;64.40;;;;;;4969353;28;20027;-65
2021/04/26 06:55:31;;;;;;;5.05;2.53;;;22.90;64.60;;;;;;4974485;28;20110;-62
2021/04/26 06:57:59;;;;;;;6.05;3.10;;;22.80;66.10;;;;;;4973070;28;20469;-63
2021/04/26 07:00:28;;;;;;;6.13;2.15;;;22.70;66.30;;;;;;4972303;28;20106;-61
2021/04/26 07:02:56;;;;;;;5.78;2.80;;;22.60;66.70;;;;;;4968697;28;20049;-62
2021/04/26 07:05:24;;;;;;;6.95;2.50;;;22.50;67.20;;;;;;4974003;28;20035;-61
2021/04/26 07:07:52;;;;;;;4.35;2.58;;;22.40;67.80;;;;;;4973091;28;20042;-66
2021/04/26 07:10:19;;;;;;;4.32;2.40;;;22.30;68.60;;;;;;4973857;28;20382;-62
2021/04/26 07:12:47;;;;;;;3.72;2.25;;;22.20;68.80;;;;;;4968304;28;20038;-64
2021/04/26 07:15:15;;;;;;;9.65;3.17;;;22.20;68.90;;;;;;4956168;29;20379;-66
2021/04/26 07:17:43;;;;;;;8.55;3.65;;;22.10;69.60;;;;;;4960604;28;20042;-68
2021/04/26 07:20:14;;;;;;;6.45;2.75;;;21.90;70.00;;;;;;4975556;28;20066;-66
2021/04/26 07:22:42;;;;;;;13.68;4.65;;;21.80;69.70;;;;;;4958011;28;20393;-66
2021/04/26 07:25:10;;;;;;;9.10;3.63;;;21.80;69.60;;;;;;4974889;28;20039;-64
2021/04/26 07:27:38;;;;;;;5.97;3.78;;;21.70;71.50;;;;;;4975306;28;20589;-62
2021/04/26 07:30:09;;;;;;;10.20;4.10;;;21.60;71.90;;;;;;4975271;28;20326;-63
2021/04/26 07:32:37;;;;;;;8.77;4.53;;;21.60;71.90;;;;;;4975856;28;20050;-67
2021/04/26 07:35:07;;;;;;;7.70;4.60;;;21.50;72.40;;;;;;4957440;28;20574;-69
2021/04/26 07:37:34;;;;;;;7.65;3.95;;;21.50;72.60;;;;;;4973931;28;20031;-66
2021/04/26 07:40:01;;;;;;;15.95;5.00;;;21.50;72.80;;;;;;4974135;28;20091;-66
2021/04/26 07:42:29;;;;;;;6.68;4.40;;;21.40;72.30;;;;;;4974847;28;20039;-64
2021/04/26 07:44:56;;;;;;;6.22;4.53;;;21.40;73.00;;;;;;4973730;28;20042;-65
2021/04/26 07:47:23;;;;;;;8.82;4.72;;;21.40;73.30;;;;;;4973950;28;20027;-65
2021/04/26 07:49:51;;;;;;;6.40;5.43;;;21.30;72.20;;;;;;4973762;28;20043;-64
2021/04/26 07:52:20;;;;;;;10.20;6.00;;;21.30;73.60;;;;;;4973929;28;20054;-66
2021/04/26 07:54:47;;;;;;;6.68;4.60;;;21.20;73.00;;;;;;4974473;28;20030;-68
2021/04/26 07:57:14;;;;;;;10.18;5.07;;;21.20;73.80;;;;;;4973585;28;20097;-67
2021/04/26 07:59:42;;;;;;;11.10;4.93;;;21.10;74.20;;;;;;4974145;28;20038;-65
2021/04/26 08:02:09;;;;;;;7.55;6.50;;;21.10;73.90;;;;;;4970978;28;20043;-67
2021/04/26 08:04:37;;;;;;;9.95;5.50;;;21.10;74.60;;;;;;4971308;28;20044;-66
2021/04/26 08:07:05;;;;;;;8.38;7.05;;;21.00;74.30;;;;;;4961869;28;20027;-61
2021/04/26 08:09:33;;;;;;;9.95;6.20;;;21.10;76.20;;;;;;4968339;28;20039;-63
2021/04/26 08:12:00;;;;;;;7.50;5.60;;;21.10;75.20;;;;;;4970332;28;20037;-61
2021/04/26 08:14:27;;;;;;;10.48;6.35;;;21.20;74.70;;;;;;4970710;28;20154;-57
2021/04/26 08:16:55;;;;;;;8.02;6.25;;;21.20;75.20;;;;;;4970256;28;20035;-56
2021/04/26 08:19:23;;;;;;;6.68;5.90;;;21.20;74.90;;;;;;4971426;28;20026;-63
2021/04/26 08:21:50;;;;;;;14.07;6.65;;;21.20;74.80;;;;;;4955181;28;20049;-62
2021/04/26 08:24:18;;;;;;;7.15;5.88;;;21.20;74.40;;;;;;4971174;28;20027;-73
2021/04/26 08:26:45;;;;;;;9.40;5.85;;;21.20;74.40;;;;;;4972656;28;20442;-65
2021/04/26 08:29:13;;;;;;;6.65;4.55;;;21.20;74.50;;;;;;4972712;28;20090;-67
2021/04/26 08:31:40;;;;;;;6.20;5.60;;;21.20;74.30;;;;;;4969158;28;20023;-62
2021/04/26 08:34:08;;;;;;;9.80;6.18;;;21.20;74.60;;;;;;4968702;28;20035;-61
2021/04/26 08:36:35;;;;;;;9.38;5.53;;;21.20;74.50;;;;;;4972100;28;20026;-56
2021/04/26 08:39:03;;;;;;;12.60;5.40;;;21.20;74.30;;;;;;4972453;28;20034;-63
2021/04/26 08:41:35;;;;;;;12.52;5.30;;;21.30;74.20;;;;;;4973539;28;20051;-58
2021/04/26 08:44:02;;;;;;;;;;;21.30;74.10;;;;;;4967596;28;20734;-64
2021/04/26 08:46:29;;;;;;;10.80;5.07;;;21.30;74.30;;;;;;4972958;28;19929;-57
2021/04/26 08:48:58;;;;;;;9.55;5.30;;;21.20;75.00;;;;;;4973349;28;20043;-55
2021/04/26 08:51:30;;;;;;;14.80;5.20;;;21.30;75.70;;;;;;4972152;28;20031;-56
2021/04/26 08:53:57;;;;;;;14.63;5.03;;;21.30;76.20;;;;;;4973016;28;20023;-59
2021/04/26 08:56:25;;;;;;;12.90;5.22;;;21.30;76.40;;;;;;4969822;28;20477;-57
2021/04/26 08:58:52;;;;;;;14.35;5.45;;;21.20;77.00;;;;;;4973011;28;20393;-56
2021/04/26 09:01:19;;;;;;;15.80;5.50;;;21.20;77.50;;;;;;4972132;28;20031;-54
2021/04/26 09:03:48;;;;;;;12.23;4.78;;;21.20;77.40;;;;;;4971453;28;20034;-63
2021/04/26 09:06:15;;;;;;;19.85;5.32;;;21.20;78.70;;;;;;4971692;28;20026;-62
2021/04/26 09:08:52;;;;;;;15.05;5.78;;;21.10;78.50;;;;;;4972759;28;20059;-66
2021/04/26 09:11:19;;;;;;;19.33;6.35;;;21.10;78.60;;;;;;4971866;28;20362;-65
2021/04/26 09:13:49;;;;;;;18.30;6.32;;;21.20;78.80;;;;;;4971516;28;20366;-57
2021/04/26 09:16:30;;;;;;;19.38;5.97;;;21.10;77.90;;;;;;4972648;28;20409;-58
2021/04/26 09:19:05;;;;;;;16.67;5.03;;;21.10;77.90;;;;;;4954415;28;20057;-56
2021/04/26 09:21:47;;;;;;;16.90;5.40;;;21.10;78.10;;;;;;4972031;28;20037;-54
2021/04/26 09:24:23;;;;;;;15.50;5.28;;;21.10;77.20;;;;;;4970369;28;20109;-62
2021/04/26 09:27:01;;;;;;;20.92;5.82;;;21.10;77.70;;;;;;4973389;28;20473;-60
2021/04/26 09:29:32;;;;;;;18.10;5.55;;;21.10;79.00;;;;;;4971646;28;20367;-52
2021/04/26 09:32:09;;;;;;;20.83;6.28;;;21.10;78.70;;;;;;4971400;28;20118;-54
2021/04/26 09:34:44;;;;;;;17.58;6.70;;;21.10;79.30;;;;;;4968576;28;20055;-58
2021/04/26 09:37:27;;;;;;;17.65;6.70;;;21.00;79.40;;;;;;4970627;28;20031;-62
2021/04/26 09:40:12;;;;;;;19.17;6.93;;;21.00;80.20;;;;;;4971715;28;20023;-61
2021/04/26 09:42:44;;;;;;;17.02;6.70;;;21.10;79.20;;;;;;4971385;28;20434;-61
2021/04/26 09:45:33;;;;;;;24.00;6.63;;;21.00;79.30;;;;;;4966188;28;20077;-59
2021/04/26 09:48:23;;;;;;;15.48;6.40;;;21.10;80.50;;;;;;4971589;28;20065;-59
2021/04/26 09:51:01;;;;;;;27.50;5.65;;;21.10;80.30;;;;;;4953891;28;20114;-56
2021/04/26 09:53:40;;;;;;;18.67;6.10;;;21.00;80.40;;;;;;4971026;28;20026;-63
2021/04/26 09:56:12;;;;;;;27.75;6.72;;;21.00;80.80;;;;;;4974282;28;20504;-61
2021/04/26 09:58:47;;;;;;;27.27;7.15;;;21.00;82.00;;;;;;4975532;28;20050;-60
2021/04/26 10:01:15;;;;;;;27.48;7.47;;;21.00;82.30;;;;;;4975212;28;20038;-55
2021/04/26 10:03:42;;;;;;;22.65;6.50;;;21.00;82.90;;;;;;4974993;28;20454;-54
2021/04/26 10:06:12;;;;;;;22.30;6.55;;;21.00;82.80;;;;;;4974205;28;20049;-60
2021/04/26 10:08:39;;;;;;;23.48;6.75;;;21.00;83.30;;;;;;4973309;28;20027;-60
2021/04/26 10:11:07;;;;;;;22.05;7.68;;;21.00;84.70;;;;;;4957410;28;20161;-67
2021/04/26 10:13:34;;;;;;;24.55;6.40;;;20.90;84.00;;;;;;4975162;28;20482;-63
2021/04/26 10:16:04;;;;;;;27.27;7.85;;;21.00;85.70;;;;;;4971228;28;20104;-63
2021/04/26 10:18:38;;;;;;;22.55;8.45;;;21.00;84.10;;;;;;4973113;28;20158;-64
2021/04/26 10:21:25;;;;;;;23.77;7.70;;;21.00;86.20;;;;;;4972539;28;20031;-63
2021/04/26 10:23:54;;;;;;;26.67;7.63;;;21.00;85.20;;;;;;4972713;28;20031;-60
2021/04/26 10:26:50;;;;;;;26.85;8.55;;;21.00;84.60;;;;;;4971181;28;20042;-64
2021/04/26 10:29:19;;;;;;;27.33;9.73;;;21.00;86.50;;;;;;4971800;28;20123;-65
2021/04/26 10:32:00;;;;;;;29.70;9.45;;;21.00;86.10;;;;;;4972472;28;20118;-63
2021/04/26 10:34:28;;;;;;;32.00;8.77;;;21.00;87.20;;;;;;4967419;28;21761;-61
2021/04/26 10:37:03;;;;;;;36.13;10.10;;;21.00;87.80;;;;;;4972732;28;20054;-60
2021/04/26 10:39:35;;;;;;;21.67;8.82;;;21.00;87.10;;;;;;4973303;28;20524;-62
2021/04/26 10:42:05;;;;;;;27.80;10.15;;;21.00;85.30;;;;;;4973569;28;20090;-62
2021/04/26 10:44:42;;;;;;;26.48;9.38;;;20.90;85.00;;;;;;4968364;28;20117;-62
2021/04/26 10:47:18;;;;;;;25.35;9.57;;;20.90;83.10;;;;;;4973066;28;20030;-64
2021/04/26 10:49:46;;;;;;;24.65;9.18;;;20.80;85.10;;;;;;4972339;28;20042;-69
2021/04/26 10:52:36;;;;;;;22.48;8.40;;;20.70;83.70;;;;;;4972672;28;20129;-62
2021/04/26 10:55:08;;;;;;;21.10;8.85;;;20.70;84.00;;;;;;4970986;28;20130;-59
2021/04/26 10:57:45;;;;;;;25.35;7.82;;;20.70;83.80;;;;;;4974965;28;20115;-61
2021/04/26 11:00:29;;;;;;;22.95;9.13;;;20.60;84.50;;;;;;4973122;28;20033;-63
2021/04/26 11:03:11;;;;;;;25.27;9.20;;;20.60;84.60;;;;;;4973144;28;20053;-60
2021/04/26 11:05:43;;;;;;;15.88;7.90;;;20.60;84.40;;;;;;4966946;28;20026;-63
2021/04/26 11:08:33;;;;;;;17.75;7.57;;;20.60;84.30;;;;;;4972485;28;20129;-61
2021/04/26 11:11:29;;;;;;;23.38;7.68;;;20.50;84.00;;;;;;4966893;28;20339;-63
2021/04/26 11:14:03;;;;;;;13.32;7.30;;;20.50;84.00;;;;;;4971255;28;20027;-65
2021/04/26 11:17:04;;;;;;;20.35;7.25;;;20.40;83.50;;;;;;4972484;28;20022;-64
2021/04/26 11:19:34;;;;;;;17.20;7.50;;;20.40;83.70;;;;;;4972843;28;20039;-62
2021/04/26 11:22:03;;;;;;;19.50;7.78;;;20.40;84.10;;;;;;4972180;28;20054;-63
2021/04/26 11:24:37;;;;;;;18.60;7.72;;;20.40;83.90;;;;;;4968423;28;20027;-62
2021/04/26 11:27:10;;;;;;;17.83;7.97;;;20.40;83.80;;;;;;4972435;28;20386;-62
2021/04/26 11:29:49;;;;;;;12.60;6.72;;;20.30;83.70;;;;;;4972044;28;20038;-62
2021/04/26 11:32:20;;;;;;;17.35;6.82;;;20.30;83.60;;;;;;4972001;28;20050;-64
2021/04/26 11:34:50;;;;;;;22.63;7.70;;;20.30;83.30;;;;;;4968430;28;20473;-63
2021/04/26 11:37:22;;;;;;;17.65;7.25;;;20.30;83.10;;;;;;4972106;28;20043;-61
2021/04/26 11:39:54;;;;;;;18.77;7.15;;;20.20;83.00;;;;;;4972007;28;20390;-65
2021/04/26 11:42:27;;;;;;;15.70;6.95;;;20.20;82.90;;;;;;4971900;28;20051;-62
2021/04/26 11:44:55;;;;;;;14.23;7.07;;;20.30;82.70;;;;;;4967826;28;20509;-62
2021/04/26 11:47:24;;;;;;;12.90;6.32;;;20.20;82.50;;;;;;4971836;28;20145;-62
2021/04/26 11:49:53;;;;;;;15.38;7.35;;;20.20;82.30;;;;;;4972141;28;20055;-59
2021/04/26 11:52:26;;;;;;;21.77;7.63;;;20.20;82.50;;;;;;4972477;28;20194;-62
2021/04/26 11:55:08;;;;;;;13.50;6.78;;;20.20;82.40;;;;;;4968486;28;20026;-61
2021/04/26 11:57:49;;;;;;;17.63;7.15;;;20.10;82.40;;;;;;4971600;28;20031;-60
2021/04/26 12:00:20;;;;;;;14.93;6.35;;;20.10;82.10;;;;;;4971447;28;20023;-61
2021/04/26 12:02:50;;;;;;;15.88;6.95;;;20.10;82.10;;;;;;4971407;28;20505;-58
2021/04/26 12:05:20;;;;;;;17.10;6.60;;;20.10;82.10;;;;;;4968065;28;20473;-61
2021/04/26 12:07:48;;;;;;;12.30;6.28;;;20.10;81.90;;;;;;4972500;28;20091;-61
2021/04/26 12:10:24;;;;;;;19.20;6.40;;;20.10;81.80;;;;;;4972548;28;20019;-59
2021/04/26 12:13:03;;;;;;;12.73;5.97;;;20.10;82.10;;;;;;4972393;28;20037;-62
2021/04/26 12:15:32;;;;;;;11.23;6.22;;;20.00;81.80;;;;;;4966458;28;20481;-61
2021/04/26 12:18:01;;;;;;;12.18;6.25;;;20.00;81.60;;;;;;4970873;28;20031;-60
2021/04/26 12:20:33;;;;;;;10.48;5.63;;;20.00;81.50;;;;;;4970333;28;20550;-65
2021/04/26 12:23:06;;;;;;;11.73;6.30;;;20.00;81.40;;;;;;4970584;28;20045;-64
2021/04/26 12:25:40;;;;;;;15.48;6.22;;;20.00;81.20;;;;;;4967148;28;20093;-63
2021/04/26 12:28:10;;;;;;;18.55;6.65;;;20.00;81.20;;;;;;4971183;28;20039;-64
2021/04/26 12:30:39;;;;;;;13.25;6.25;;;20.00;81.00;;;;;;4971493;28;20042;-64
2021/04/26 12:33:32;;;;;;;11.10;5.60;;;20.00;81.00;;;;;;4971125;28;20027;-62
2021/04/26 12:36:03;;;;;;;10.50;5.65;;;19.90;80.90;;;;;;4949535;28;20050;-61
2021/04/26 12:38:37;;;;;;;12.40;6.40;;;19.90;80.90;;;;;;4971122;28;20037;-64
2021/04/26 12:41:07;;;;;;;15.70;5.80;;;19.90;80.70;;;;;;4968646;28;20035;-59
2021/04/26 12:43:40;;;;;;;16.45;5.93;;;19.90;80.70;;;;;;4970560;28;20393;-61
2021/04/26 12:46:25;;;;;;;10.48;5.03;;;19.90;80.60;;;;;;4967062;28;20105;-63
2021/04/26 12:48:53;;;;;;;12.00;5.60;;;19.90;80.60;;;;;;4970161;28;20042;-61
2021/04/26 12:51:32;;;;;;;8.45;5.47;;;19.90;80.50;;;;;;4970574;28;20045;-62
2021/04/26 12:54:10;;;;;;;14.15;5.40;;;19.90;80.50;;;;;;4969296;28;20035;-60
2021/04/26 12:56:38;;;;;;;12.70;5.95;;;19.90;80.50;;;;;;4969006;28;20039;-63
2021/04/26 12:59:06;;;;;;;11.00;5.55;;;19.90;80.30;;;;;;4971537;28;20031;-62
2021/04/26 13:01:33;;;;;;;11.35;5.32;;;19.90;80.20;;;;;;4973768;28;20041;-60